Terminal Aerodrome Forecast
Issued by NWS

Home | Current Version | Previous Version | Text Only | Print | Product List | Glossary Off
Versions: 1 2 3 4 5 6 7 8 9 10 11 12 13 14

587
FTUS43 KMPX 031733
TAFRWF
TAF
KRWF 031733Z 0318/0418 32015G19KT P6SM SKC
     FM032200 29009KT P6SM FEW080
     FM040300 24007KT P6SM OVC120
     FM040800 21006KT P6SM OVC050
     FM041500 29008KT 6SM -SN SCT020 OVC035=

USA.gov is the U.S. government's official web portal to all federal, state and local government web resources and services.